sensor_id;sensor_type;location;lat;lon;timestamp;temperature;humidity
19538;DHT22;9914;51.008;4.300;2023-04-25T00:01:11;10.70;99.90
19538;DHT22;9914;51.008;4.300;2023-04-25T00:03:39;10.70;99.90
19538;DHT22;9914;51.008;4.300;2023-04-25T00:06:06;10.70;99.90
19538;DHT22;9914;51.008;4.300;2023-04-25T00:08:32;10.70;99.90
19538;DHT22;9914;51.008;4.300;2023-04-25T00:10:58;10.60;99.90
19538;DHT22;9914;51.008;4.300;2023-04-25T00:13:24;10.50;99.90
19538;DHT22;9914;51.008;4.300;2023-04-25T00:15:51;10.50;99.90
19538;DHT22;9914;51.008;4.300;2023-04-25T00:18:18;10.60;99.90
19538;DHT22;9914;51.008;4.300;2023-04-25T00:20:44;10.60;99.90
19538;DHT22;9914;51.008;4.300;2023-04-25T00:23:10;10.70;99.90
19538;DHT22;9914;51.008;4.300;2023-04-25T00:25:35;10.80;99.90
19538;DHT22;9914;51.008;4.300;2023-04-25T00:28:01;10.80;99.90
19538;DHT22;9914;51.008;4.300;2023-04-25T00:30:27;10.70;99.90
19538;DHT22;9914;51.008;4.300;2023-04-25T00:32:52;10.80;99.90
19538;DHT22;9914;51.008;4.300;2023-04-25T00:35:18;10.70;99.90
19538;DHT22;9914;51.008;4.300;2023-04-25T00:37:44;10.60;99.90
19538;DHT22;9914;51.008;4.300;2023-04-25T00:40:10;10.60;99.90
19538;DHT22;9914;51.008;4.300;2023-04-25T00:42:36;10.60;99.90
19538;DHT22;9914;51.008;4.300;2023-04-25T00:45:05;10.60;99.90
19538;DHT22;9914;51.008;4.300;2023-04-25T00:47:31;10.50;99.90
19538;DHT22;9914;51.008;4.300;2023-04-25T00:49:58;10.60;99.90
19538;DHT22;9914;51.008;4.300;2023-04-25T00:52:23;10.60;99.90
19538;DHT22;9914;51.008;4.300;2023-04-25T00:54:49;10.60;99.90
19538;DHT22;9914;51.008;4.300;2023-04-25T00:57:15;10.70;99.90
19538;DHT22;9914;51.008;4.300;2023-04-25T00:59:45;10.60;99.90
19538;DHT22;9914;51.008;4.300;2023-04-25T01:02:11;10.60;99.90
19538;DHT22;9914;51.008;4.300;2023-04-25T01:04:38;10.70;99.90
19538;DHT22;9914;51.008;4.300;2023-04-25T01:07:04;10.60;99.90
19538;DHT22;9914;51.008;4.300;2023-04-25T01:09:30;10.30;99.90
19538;DHT22;9914;51.008;4.300;2023-04-25T01:11:57;9.80;99.90
19538;DHT22;9914;51.008;4.300;2023-04-25T01:14:23;9.70;99.90
19538;DHT22;9914;51.008;4.300;2023-04-25T01:16:49;9.30;99.90
19538;DHT22;9914;51.008;4.300;2023-04-25T01:19:16;9.10;99.90
19538;DHT22;9914;51.008;4.300;2023-04-25T01:21:43;9.00;99.90
19538;DHT22;9914;51.008;4.300;2023-04-25T01:24:11;8.90;99.90
19538;DHT22;9914;51.008;4.300;2023-04-25T01:26:37;8.80;99.90
19538;DHT22;9914;51.008;4.300;2023-04-25T01:29:04;8.70;99.90
19538;DHT22;9914;51.008;4.300;2023-04-25T01:31:30;8.70;99.90
19538;DHT22;9914;51.008;4.300;2023-04-25T01:33:57;8.70;99.90
19538;DHT22;9914;51.008;4.300;2023-04-25T01:36:22;8.70;99.90
19538;DHT22;9914;51.008;4.300;2023-04-25T01:38:48;8.70;99.90
19538;DHT22;9914;51.008;4.300;2023-04-25T01:41:14;8.70;99.90
19538;DHT22;9914;51.008;4.300;2023-04-25T01:43:40;8.70;99.90
19538;DHT22;9914;51.008;4.300;2023-04-25T01:46:06;9.00;99.90
19538;DHT22;9914;51.008;4.300;2023-04-25T01:48:32;9.40;99.90
19538;DHT22;9914;51.008;4.300;2023-04-25T01:50:58;9.70;99.90
19538;DHT22;9914;51.008;4.300;2023-04-25T01:53:24;9.70;99.90
19538;DHT22;9914;51.008;4.300;2023-04-25T01:55:50;9.20;99.90
19538;DHT22;9914;51.008;4.300;2023-04-25T01:58:15;8.80;99.90
19538;DHT22;9914;51.008;4.300;2023-04-25T02:00:41;8.70;99.90
19538;DHT22;9914;51.008;4.300;2023-04-25T02:03:07;8.50;99.90
19538;DHT22;9914;51.008;4.300;2023-04-25T02:05:37;8.50;99.90
19538;DHT22;9914;51.008;4.300;2023-04-25T02:08:05;8.50;99.90
19538;DHT22;9914;51.008;4.300;2023-04-25T02:10:31;8.40;99.90
19538;DHT22;9914;51.008;4.300;2023-04-25T02:12:57;8.40;99.90
19538;DHT22;9914;51.008;4.300;2023-04-25T02:15:23;8.30;99.90
19538;DHT22;9914;51.008;4.300;2023-04-25T02:17:48;8.30;99.90
19538;DHT22;9914;51.008;4.300;2023-04-25T02:20:14;8.40;99.90
19538;DHT22;9914;51.008;4.300;2023-04-25T02:22:41;8.40;99.90
19538;DHT22;9914;51.008;4.300;2023-04-25T02:25:08;8.50;99.90
19538;DHT22;9914;51.008;4.300;2023-04-25T02:27:34;8.80;99.90
19538;DHT22;9914;51.008;4.300;2023-04-25T02:30:00;8.70;99.90
19538;DHT22;9914;51.008;4.300;2023-04-25T02:32:26;8.60;99.90
19538;DHT22;9914;51.008;4.300;2023-04-25T02:34:52;8.50;99.90
19538;DHT22;9914;51.008;4.300;2023-04-25T02:37:18;8.50;99.90
19538;DHT22;9914;51.008;4.300;2023-04-25T02:39:44;8.60;99.90
19538;DHT22;9914;51.008;4.300;2023-04-25T02:42:10;8.60;99.90
19538;DHT22;9914;51.008;4.300;2023-04-25T02:44:36;8.40;99.90
19538;DHT22;9914;51.008;4.300;2023-04-25T02:47:01;8.30;99.90
19538;DHT22;9914;51.008;4.300;2023-04-25T02:49:27;8.20;99.90
19538;DHT22;9914;51.008;4.300;2023-04-25T02:51:53;8.20;99.90
19538;DHT22;9914;51.008;4.300;2023-04-25T02:54:18;8.10;99.90
19538;DHT22;9914;51.008;4.300;2023-04-25T02:56:44;8.20;99.90
19538;DHT22;9914;51.008;4.300;2023-04-25T02:59:10;8.10;99.90
19538;DHT22;9914;51.008;4.300;2023-04-25T03:01:35;8.20;99.90
19538;DHT22;9914;51.008;4.300;2023-04-25T03:04:01;8.00;99.90
19538;DHT22;9914;51.008;4.300;2023-04-25T03:06:26;7.90;99.90
19538;DHT22;9914;51.008;4.300;2023-04-25T03:08:52;7.90;99.90
19538;DHT22;9914;51.008;4.300;2023-04-25T03:11:18;7.80;99.90
19538;DHT22;9914;51.008;4.300;2023-04-25T03:13:45;7.90;99.90
19538;DHT22;9914;51.008;4.300;2023-04-25T03:16:11;8.00;99.90
19538;DHT22;9914;51.008;4.300;2023-04-25T03:18:37;8.10;99.90
19538;DHT22;9914;51.008;4.300;2023-04-25T03:21:02;8.00;99.90
19538;DHT22;9914;51.008;4.300;2023-04-25T03:23:28;7.90;99.90
19538;DHT22;9914;51.008;4.300;2023-04-25T03:25:54;7.90;99.90
19538;DHT22;9914;51.008;4.300;2023-04-25T03:28:19;7.90;99.90
19538;DHT22;9914;51.008;4.300;2023-04-25T03:30:45;7.90;99.90
19538;DHT22;9914;51.008;4.300;2023-04-25T03:33:11;7.90;99.90
19538;DHT22;9914;51.008;4.300;2023-04-25T03:35:36;7.80;99.90
19538;DHT22;9914;51.008;4.300;2023-04-25T03:38:02;7.90;99.90
19538;DHT22;9914;51.008;4.300;2023-04-25T03:40:28;8.00;99.90
19538;DHT22;9914;51.008;4.300;2023-04-25T03:42:53;8.00;99.90
19538;DHT22;9914;51.008;4.300;2023-04-25T03:45:19;7.90;99.90
19538;DHT22;9914;51.008;4.300;2023-04-25T03:47:44;8.00;99.90
19538;DHT22;9914;51.008;4.300;2023-04-25T03:50:10;7.90;99.90
19538;DHT22;9914;51.008;4.300;2023-04-25T03:52:36;7.80;99.90
19538;DHT22;9914;51.008;4.300;2023-04-25T03:55:01;7.80;99.90
19538;DHT22;9914;51.008;4.300;2023-04-25T03:57:27;7.70;99.90
19538;DHT22;9914;51.008;4.300;2023-04-25T03:59:53;7.80;99.90
19538;DHT22;9914;51.008;4.300;2023-04-25T04:02:18;7.70;99.90
19538;DHT22;9914;51.008;4.300;2023-04-25T04:04:44;7.70;99.90
19538;DHT22;9914;51.008;4.300;2023-04-25T04:07:10;7.70;99.90
19538;DHT22;9914;51.008;4.300;2023-04-25T04:09:36;7.60;99.90
19538;DHT22;9914;51.008;4.300;2023-04-25T04:12:02;7.70;99.90
19538;DHT22;9914;51.008;4.300;2023-04-25T04:14:28;7.70;99.90
19538;DHT22;9914;51.008;4.300;2023-04-25T04:16:53;7.50;99.90
19538;DHT22;9914;51.008;4.300;2023-04-25T04:19:19;7.40;99.90
19538;DHT22;9914;51.008;4.300;2023-04-25T04:21:45;7.30;99.90
19538;DHT22;9914;51.008;4.300;2023-04-25T04:24:11;7.30;99.90
19538;DHT22;9914;51.008;4.300;2023-04-25T04:26:37;7.40;99.90
19538;DHT22;9914;51.008;4.300;2023-04-25T04:29:04;7.30;99.90
19538;DHT22;9914;51.008;4.300;2023-04-25T04:31:29;7.30;99.90
19538;DHT22;9914;51.008;4.300;2023-04-25T04:33:55;7.30;99.90
19538;DHT22;9914;51.008;4.300;2023-04-25T04:36:21;7.30;99.90
19538;DHT22;9914;51.008;4.300;2023-04-25T04:38:48;7.20;99.90
19538;DHT22;9914;51.008;4.300;2023-04-25T04:41:14;7.30;99.90
19538;DHT22;9914;51.008;4.300;2023-04-25T04:43:40;7.40;99.90
19538;DHT22;9914;51.008;4.300;2023-04-25T04:46:05;7.40;99.90
19538;DHT22;9914;51.008;4.300;2023-04-25T04:48:32;7.40;99.90
19538;DHT22;9914;51.008;4.300;2023-04-25T04:51:00;7.50;99.90
19538;DHT22;9914;51.008;4.300;2023-04-25T04:53:26;7.60;99.90
19538;DHT22;9914;51.008;4.300;2023-04-25T04:55:52;7.70;99.90
19538;DHT22;9914;51.008;4.300;2023-04-25T04:58:18;7.80;99.90
19538;DHT22;9914;51.008;4.300;2023-04-25T05:00:44;7.90;99.90
19538;DHT22;9914;51.008;4.300;2023-04-25T05:03:10;7.90;99.90
19538;DHT22;9914;51.008;4.300;2023-04-25T05:05:36;8.10;99.90
19538;DHT22;9914;51.008;4.300;2023-04-25T05:08:05;8.30;99.90
19538;DHT22;9914;51.008;4.300;2023-04-25T05:10:31;8.60;99.90
19538;DHT22;9914;51.008;4.300;2023-04-25T05:12:57;8.70;99.90
19538;DHT22;9914;51.008;4.300;2023-04-25T05:15:22;8.90;99.90
19538;DHT22;9914;51.008;4.300;2023-04-25T05:17:48;9.10;99.90
19538;DHT22;9914;51.008;4.300;2023-04-25T05:20:14;9.30;99.90
19538;DHT22;9914;51.008;4.300;2023-04-25T05:22:39;9.50;99.90
19538;DHT22;9914;51.008;4.300;2023-04-25T05:25:07;9.50;99.90
19538;DHT22;9914;51.008;4.300;2023-04-25T05:27:33;9.60;99.90
19538;DHT22;9914;51.008;4.300;2023-04-25T05:29:59;9.70;99.90
19538;DHT22;9914;51.008;4.300;2023-04-25T05:32:25;9.70;99.90
19538;DHT22;9914;51.008;4.300;2023-04-25T05:34:50;9.40;99.90
19538;DHT22;9914;51.008;4.300;2023-04-25T05:37:17;8.80;99.90
19538;DHT22;9914;51.008;4.300;2023-04-25T05:39:42;8.70;99.90
19538;DHT22;9914;51.008;4.300;2023-04-25T05:42:08;9.10;99.90
19538;DHT22;9914;51.008;4.300;2023-04-25T05:44:34;9.00;99.90
19538;DHT22;9914;51.008;4.300;2023-04-25T05:47:00;9.40;99.90
19538;DHT22;9914;51.008;4.300;2023-04-25T05:49:25;9.80;99.90
19538;DHT22;9914;51.008;4.300;2023-04-25T05:51:51;9.80;99.90
19538;DHT22;9914;51.008;4.300;2023-04-25T05:54:17;9.90;99.90
19538;DHT22;9914;51.008;4.300;2023-04-25T05:56:42;9.50;99.90
19538;DHT22;9914;51.008;4.300;2023-04-25T05:59:08;9.50;99.90
19538;DHT22;9914;51.008;4.300;2023-04-25T06:01:34;9.00;99.90
19538;DHT22;9914;51.008;4.300;2023-04-25T06:03:59;8.70;99.90
19538;DHT22;9914;51.008;4.300;2023-04-25T06:06:25;8.60;99.90
19538;DHT22;9914;51.008;4.300;2023-04-25T06:08:52;8.30;99.90
19538;DHT22;9914;51.008;4.300;2023-04-25T06:11:17;8.90;99.90
19538;DHT22;9914;51.008;4.300;2023-04-25T06:13:43;8.80;99.90
19538;DHT22;9914;51.008;4.300;2023-04-25T06:16:09;8.70;99.90
19538;DHT22;9914;51.008;4.300;2023-04-25T06:18:34;8.60;99.90
19538;DHT22;9914;51.008;4.300;2023-04-25T06:21:00;8.60;99.90
19538;DHT22;9914;51.008;4.300;2023-04-25T06:23:26;8.80;99.90
19538;DHT22;9914;51.008;4.300;2023-04-25T06:25:51;8.90;99.90
19538;DHT22;9914;51.008;4.300;2023-04-25T06:28:17;8.70;99.90
19538;DHT22;9914;51.008;4.300;2023-04-25T06:30:43;8.60;99.90
19538;DHT22;9914;51.008;4.300;2023-04-25T06:33:08;8.50;99.90
19538;DHT22;9914;51.008;4.300;2023-04-25T06:35:34;9.00;99.90
19538;DHT22;9914;51.008;4.300;2023-04-25T06:38:00;9.30;99.90
19538;DHT22;9914;51.008;4.300;2023-04-25T06:40:26;9.10;99.90
19538;DHT22;9914;51.008;4.300;2023-04-25T06:42:51;8.70;99.90
19538;DHT22;9914;51.008;4.300;2023-04-25T06:45:17;8.60;99.90
19538;DHT22;9914;51.008;4.300;2023-04-25T06:47:43;8.50;99.90
19538;DHT22;9914;51.008;4.300;2023-04-25T06:50:09;8.50;99.90
19538;DHT22;9914;51.008;4.300;2023-04-25T06:52:35;9.10;99.90
19538;DHT22;9914;51.008;4.300;2023-04-25T06:55:00;8.80;99.90
19538;DHT22;9914;51.008;4.300;2023-04-25T06:57:26;8.80;99.90
19538;DHT22;9914;51.008;4.300;2023-04-25T06:59:52;9.40;99.90
19538;DHT22;9914;51.008;4.300;2023-04-25T07:02:18;9.90;99.90
19538;DHT22;9914;51.008;4.300;2023-04-25T07:04:43;10.10;99.90
19538;DHT22;9914;51.008;4.300;2023-04-25T07:07:10;10.00;99.90
19538;DHT22;9914;51.008;4.300;2023-04-25T07:09:36;9.30;99.90
19538;DHT22;9914;51.008;4.300;2023-04-25T07:12:01;9.00;99.90
19538;DHT22;9914;51.008;4.300;2023-04-25T07:14:28;9.20;99.90
19538;DHT22;9914;51.008;4.300;2023-04-25T07:16:53;9.40;99.90
19538;DHT22;9914;51.008;4.300;2023-04-25T07:19:21;9.30;99.90
19538;DHT22;9914;51.008;4.300;2023-04-25T07:21:46;9.10;99.90
19538;DHT22;9914;51.008;4.300;2023-04-25T07:24:12;9.10;99.90
19538;DHT22;9914;51.008;4.300;2023-04-25T07:26:38;9.50;99.90
19538;DHT22;9914;51.008;4.300;2023-04-25T07:29:04;9.20;99.90
19538;DHT22;9914;51.008;4.300;2023-04-25T07:31:29;9.70;99.90
19538;DHT22;9914;51.008;4.300;2023-04-25T07:33:55;10.00;99.90
19538;DHT22;9914;51.008;4.300;2023-04-25T07:36:21;10.50;99.90
19538;DHT22;9914;51.008;4.300;2023-04-25T07:38:47;10.20;99.90
19538;DHT22;9914;51.008;4.300;2023-04-25T07:41:12;9.30;99.90
19538;DHT22;9914;51.008;4.300;2023-04-25T07:43:38;9.00;99.90
19538;DHT22;9914;51.008;4.300;2023-04-25T07:46:04;8.90;99.90
19538;DHT22;9914;51.008;4.300;2023-04-25T07:48:30;9.40;99.90
19538;DHT22;9914;51.008;4.300;2023-04-25T07:50:56;9.90;99.90
19538;DHT22;9914;51.008;4.300;2023-04-25T07:53:21;10.20;99.90
19538;DHT22;9914;51.008;4.300;2023-04-25T07:55:47;9.70;99.90
19538;DHT22;9914;51.008;4.300;2023-04-25T07:58:13;9.60;99.90
19538;DHT22;9914;51.008;4.300;2023-04-25T08:00:39;9.70;99.90
19538;DHT22;9914;51.008;4.300;2023-04-25T08:03:04;9.60;99.90
19538;DHT22;9914;51.008;4.300;2023-04-25T08:05:31;10.10;99.90
19538;DHT22;9914;51.008;4.300;2023-04-25T08:07:57;10.60;99.90
19538;DHT22;9914;51.008;4.300;2023-04-25T08:10:23;10.30;99.90
19538;DHT22;9914;51.008;4.300;2023-04-25T08:12:49;10.10;99.90
19538;DHT22;9914;51.008;4.300;2023-04-25T08:15:15;10.20;99.90
19538;DHT22;9914;51.008;4.300;2023-04-25T08:17:40;10.20;99.90
19538;DHT22;9914;51.008;4.300;2023-04-25T08:20:07;10.50;99.90
19538;DHT22;9914;51.008;4.300;2023-04-25T08:22:32;11.00;99.90
19538;DHT22;9914;51.008;4.300;2023-04-25T08:24:59;11.20;99.90
19538;DHT22;9914;51.008;4.300;2023-04-25T08:27:25;11.30;99.90
19538;DHT22;9914;51.008;4.300;2023-04-25T08:29:50;11.80;99.90
19538;DHT22;9914;51.008;4.300;2023-04-25T08:32:16;12.10;99.90
19538;DHT22;9914;51.008;4.300;2023-04-25T08:34:42;11.40;99.90
19538;DHT22;9914;51.008;4.300;2023-04-25T08:37:09;11.60;99.90
19538;DHT22;9914;51.008;4.300;2023-04-25T08:39:38;12.10;99.90
19538;DHT22;9914;51.008;4.300;2023-04-25T08:42:06;11.00;99.90
19538;DHT22;9914;51.008;4.300;2023-04-25T08:44:36;10.60;99.90
19538;DHT22;9914;51.008;4.300;2023-04-25T08:47:05;10.10;99.90
19538;DHT22;9914;51.008;4.300;2023-04-25T08:49:32;9.90;99.90
19538;DHT22;9914;51.008;4.300;2023-04-25T08:52:01;10.00;99.90
19538;DHT22;9914;51.008;4.300;2023-04-25T08:54:28;10.00;99.90
19538;DHT22;9914;51.008;4.300;2023-04-25T08:56:54;10.00;99.90
19538;DHT22;9914;51.008;4.300;2023-04-25T08:59:23;10.10;99.90
19538;DHT22;9914;51.008;4.300;2023-04-25T09:01:50;10.70;99.90
19538;DHT22;9914;51.008;4.300;2023-04-25T09:04:15;11.00;99.90
19538;DHT22;9914;51.008;4.300;2023-04-25T09:06:41;10.70;99.90
19538;DHT22;9914;51.008;4.300;2023-04-25T09:09:08;10.80;99.90
19538;DHT22;9914;51.008;4.300;2023-04-25T09:11:36;10.50;99.90
19538;DHT22;9914;51.008;4.300;2023-04-25T09:14:20;10.90;99.90
19538;DHT22;9914;51.008;4.300;2023-04-25T09:22:00;10.40;99.90
19538;DHT22;9914;51.008;4.300;2023-04-25T09:24:33;10.50;99.90
19538;DHT22;9914;51.008;4.300;2023-04-25T09:26:58;10.50;99.90
19538;DHT22;9914;51.008;4.300;2023-04-25T09:29:38;10.30;99.90
19538;DHT22;9914;51.008;4.300;2023-04-25T09:32:22;10.30;99.90
19538;DHT22;9914;51.008;4.300;2023-04-25T09:34:50;10.20;99.90
19538;DHT22;9914;51.008;4.300;2023-04-25T09:37:20;10.30;99.90
19538;DHT22;9914;51.008;4.300;2023-04-25T09:39:48;10.40;99.90
19538;DHT22;9914;51.008;4.300;2023-04-25T09:42:15;10.60;99.90
19538;DHT22;9914;51.008;4.300;2023-04-25T09:44:46;10.70;99.90
19538;DHT22;9914;51.008;4.300;2023-04-25T09:47:13;10.80;99.90
19538;DHT22;9914;51.008;4.300;2023-04-25T09:49:40;11.10;99.90
19538;DHT22;9914;51.008;4.300;2023-04-25T09:52:22;11.70;99.90
19538;DHT22;9914;51.008;4.300;2023-04-25T09:54:49;12.30;99.90
19538;DHT22;9914;51.008;4.300;2023-04-25T09:57:19;12.90;99.90
19538;DHT22;9914;51.008;4.300;2023-04-25T09:59:53;13.20;99.90
19538;DHT22;9914;51.008;4.300;2023-04-25T10:02:26;12.40;99.90
19538;DHT22;9914;51.008;4.300;2023-04-25T10:04:54;11.90;99.90
19538;DHT22;9914;51.008;4.300;2023-04-25T10:07:23;11.40;99.90
19538;DHT22;9914;51.008;4.300;2023-04-25T10:09:56;11.20;99.90
19538;DHT22;9914;51.008;4.300;2023-04-25T10:12:24;11.40;99.90
19538;DHT22;9914;51.008;4.300;2023-04-25T10:14:52;12.00;99.90
19538;DHT22;9914;51.008;4.300;2023-04-25T10:17:18;11.90;99.90
19538;DHT22;9914;51.008;4.300;2023-04-25T10:19:47;11.70;99.90
19538;DHT22;9914;51.008;4.300;2023-04-25T10:22:35;11.40;99.90
19538;DHT22;9914;51.008;4.300;2023-04-25T10:25:01;11.90;99.90
19538;DHT22;9914;51.008;4.300;2023-04-25T10:27:29;11.30;99.90
19538;DHT22;9914;51.008;4.300;2023-04-25T10:30:08;11.30;99.90
19538;DHT22;9914;51.008;4.300;2023-04-25T10:32:38;11.30;99.90
19538;DHT22;9914;51.008;4.300;2023-04-25T10:35:15;10.80;99.90
19538;DHT22;9914;51.008;4.300;2023-04-25T10:40:22;10.30;99.90
19538;DHT22;9914;51.008;4.300;2023-04-25T10:42:48;10.10;99.90
19538;DHT22;9914;51.008;4.300;2023-04-25T10:45:14;10.10;99.90
19538;DHT22;9914;51.008;4.300;2023-04-25T10:47:46;10.10;99.90
19538;DHT22;9914;51.008;4.300;2023-04-25T10:50:12;10.50;99.90
19538;DHT22;9914;51.008;4.300;2023-04-25T10:52:39;10.80;99.90
19538;DHT22;9914;51.008;4.300;2023-04-25T10:55:06;11.50;99.90
19538;DHT22;9914;51.008;4.300;2023-04-25T10:57:45;11.70;99.90
19538;DHT22;9914;51.008;4.300;2023-04-25T11:00:19;10.90;99.90
19538;DHT22;9914;51.008;4.300;2023-04-25T11:02:48;11.50;99.90
19538;DHT22;9914;51.008;4.300;2023-04-25T11:05:30;11.60;99.90
19538;DHT22;9914;51.008;4.300;2023-04-25T11:07:58;11.70;99.90
19538;DHT22;9914;51.008;4.300;2023-04-25T11:10:27;12.10;99.90
19538;DHT22;9914;51.008;4.300;2023-04-25T11:12:53;11.40;99.90
19538;DHT22;9914;51.008;4.300;2023-04-25T11:15:19;11.50;99.90
19538;DHT22;9914;51.008;4.300;2023-04-25T11:17:45;11.50;99.90
19538;DHT22;9914;51.008;4.300;2023-04-25T11:20:12;11.70;99.90
19538;DHT22;9914;51.008;4.300;2023-04-25T11:22:39;11.70;99.90
19538;DHT22;9914;51.008;4.300;2023-04-25T11:25:09;12.10;99.90
19538;DHT22;9914;51.008;4.300;2023-04-25T11:27:57;12.50;99.90
19538;DHT22;9914;51.008;4.300;2023-04-25T11:30:24;12.40;99.90
19538;DHT22;9914;51.008;4.300;2023-04-25T11:32:50;12.50;99.90
19538;DHT22;9914;51.008;4.300;2023-04-25T11:35:18;12.70;99.90
19538;DHT22;9914;51.008;4.300;2023-04-25T11:37:44;12.60;99.90
19538;DHT22;9914;51.008;4.300;2023-04-25T11:40:11;12.70;99.90
19538;DHT22;9914;51.008;4.300;2023-04-25T11:42:43;12.70;99.90
19538;DHT22;9914;51.008;4.300;2023-04-25T11:45:10;12.50;99.90
19538;DHT22;9914;51.008;4.300;2023-04-25T11:47:36;12.80;99.90
19538;DHT22;9914;51.008;4.300;2023-04-25T11:50:04;13.00;99.90
19538;DHT22;9914;51.008;4.300;2023-04-25T11:52:44;12.10;99.90
19538;DHT22;9914;51.008;4.300;2023-04-25T11:55:14;12.20;99.90
19538;DHT22;9914;51.008;4.300;2023-04-25T11:57:41;11.70;99.90
19538;DHT22;9914;51.008;4.300;2023-04-25T12:02:43;12.10;99.90
19538;DHT22;9914;51.008;4.300;2023-04-25T12:05:13;12.60;99.90
19538;DHT22;9914;51.008;4.300;2023-04-25T12:07:40;13.00;99.90
19538;DHT22;9914;51.008;4.300;2023-04-25T12:10:11;12.80;99.90
19538;DHT22;9914;51.008;4.300;2023-04-25T12:12:38;12.50;99.90
19538;DHT22;9914;51.008;4.300;2023-04-25T12:15:23;12.50;99.90
19538;DHT22;9914;51.008;4.300;2023-04-25T12:17:50;12.60;99.90
19538;DHT22;9914;51.008;4.300;2023-04-25T12:20:19;12.10;99.90
19538;DHT22;9914;51.008;4.300;2023-04-25T12:22:47;11.50;99.90
19538;DHT22;9914;51.008;4.300;2023-04-25T12:25:43;11.10;99.90
19538;DHT22;9914;51.008;4.300;2023-04-25T12:28:20;11.20;99.90
19538;DHT22;9914;51.008;4.300;2023-04-25T12:31:02;10.70;99.90
19538;DHT22;9914;51.008;4.300;2023-04-25T12:33:37;10.70;99.90
19538;DHT22;9914;51.008;4.300;2023-04-25T12:36:05;11.50;99.90
19538;DHT22;9914;51.008;4.300;2023-04-25T12:38:40;12.10;99.90
19538;DHT22;9914;51.008;4.300;2023-04-25T12:41:07;12.10;99.90
19538;DHT22;9914;51.008;4.300;2023-04-25T12:43:33;11.80;99.90
19538;DHT22;9914;51.008;4.300;2023-04-25T12:45:59;12.20;99.90
19538;DHT22;9914;51.008;4.300;2023-04-25T12:48:25;12.30;99.90
19538;DHT22;9914;51.008;4.300;2023-04-25T12:50:51;12.50;99.90
19538;DHT22;9914;51.008;4.300;2023-04-25T12:53:20;12.80;99.90
19538;DHT22;9914;51.008;4.300;2023-04-25T12:55:46;12.90;99.90
19538;DHT22;9914;51.008;4.300;2023-04-25T12:58:16;12.80;99.90
19538;DHT22;9914;51.008;4.300;2023-04-25T13:00:43;12.90;99.90
19538;DHT22;9914;51.008;4.300;2023-04-25T13:03:09;13.00;99.90
19538;DHT22;9914;51.008;4.300;2023-04-25T13:05:37;13.00;99.90
19538;DHT22;9914;51.008;4.300;2023-04-25T13:08:02;13.00;99.90
19538;DHT22;9914;51.008;4.300;2023-04-25T13:10:28;12.90;99.90
19538;DHT22;9914;51.008;4.300;2023-04-25T13:12:55;12.90;99.90
19538;DHT22;9914;51.008;4.300;2023-04-25T13:15:21;12.10;99.90
19538;DHT22;9914;51.008;4.300;2023-04-25T13:17:47;11.70;99.90
19538;DHT22;9914;51.008;4.300;2023-04-25T13:20:13;12.00;99.90
19538;DHT22;9914;51.008;4.300;2023-04-25T13:22:40;11.80;99.90
19538;DHT22;9914;51.008;4.300;2023-04-25T13:25:07;11.40;99.90
19538;DHT22;9914;51.008;4.300;2023-04-25T13:27:34;11.20;99.90
19538;DHT22;9914;51.008;4.300;2023-04-25T13:30:02;11.00;99.90
19538;DHT22;9914;51.008;4.300;2023-04-25T13:32:36;11.20;99.90
19538;DHT22;9914;51.008;4.300;2023-04-25T13:35:03;11.30;99.90
19538;DHT22;9914;51.008;4.300;2023-04-25T13:37:30;11.50;99.90
19538;DHT22;9914;51.008;4.300;2023-04-25T13:40:01;11.40;99.90
19538;DHT22;9914;51.008;4.300;2023-04-25T13:42:29;11.60;99.90
19538;DHT22;9914;51.008;4.300;2023-04-25T13:44:54;11.60;99.90
19538;DHT22;9914;51.008;4.300;2023-04-25T13:47:20;11.80;99.90
19538;DHT22;9914;51.008;4.300;2023-04-25T13:49:46;11.80;99.90
19538;DHT22;9914;51.008;4.300;2023-04-25T13:52:11;11.90;99.90
19538;DHT22;9914;51.008;4.300;2023-04-25T13:54:37;11.90;99.90
19538;DHT22;9914;51.008;4.300;2023-04-25T13:57:03;12.00;99.90
19538;DHT22;9914;51.008;4.300;2023-04-25T13:59:29;12.50;99.90
19538;DHT22;9914;51.008;4.300;2023-04-25T14:01:54;12.20;99.90
19538;DHT22;9914;51.008;4.300;2023-04-25T14:04:20;12.00;99.90
19538;DHT22;9914;51.008;4.300;2023-04-25T14:06:46;12.40;99.90
19538;DHT22;9914;51.008;4.300;2023-04-25T14:09:11;12.40;99.90
19538;DHT22;9914;51.008;4.300;2023-04-25T14:11:38;12.10;99.90
19538;DHT22;9914;51.008;4.300;2023-04-25T14:14:04;12.20;99.90
19538;DHT22;9914;51.008;4.300;2023-04-25T14:16:30;12.30;99.90
19538;DHT22;9914;51.008;4.300;2023-04-25T14:18:58;12.70;99.90
19538;DHT22;9914;51.008;4.300;2023-04-25T14:21:23;12.60;99.90
19538;DHT22;9914;51.008;4.300;2023-04-25T14:23:49;13.00;99.90
19538;DHT22;9914;51.008;4.300;2023-04-25T14:26:15;13.40;99.90
19538;DHT22;9914;51.008;4.300;2023-04-25T14:28:41;12.90;99.90
19538;DHT22;9914;51.008;4.300;2023-04-25T14:31:07;12.60;99.90
19538;DHT22;9914;51.008;4.300;2023-04-25T14:33:33;12.00;99.90
19538;DHT22;9914;51.008;4.300;2023-04-25T14:35:59;12.20;99.90
19538;DHT22;9914;51.008;4.300;2023-04-25T14:38:25;12.30;99.90
19538;DHT22;9914;51.008;4.300;2023-04-25T14:40:51;12.70;99.90
19538;DHT22;9914;51.008;4.300;2023-04-25T14:43:17;12.60;99.90
19538;DHT22;9914;51.008;4.300;2023-04-25T14:45:43;12.80;99.90
19538;DHT22;9914;51.008;4.300;2023-04-25T14:48:08;12.30;99.90
19538;DHT22;9914;51.008;4.300;2023-04-25T14:50:35;12.00;99.90
19538;DHT22;9914;51.008;4.300;2023-04-25T14:53:00;11.80;99.90
19538;DHT22;9914;51.008;4.300;2023-04-25T14:55:27;12.10;99.90
19538;DHT22;9914;51.008;4.300;2023-04-25T14:57:55;12.00;99.90
19538;DHT22;9914;51.008;4.300;2023-04-25T15:00:22;11.80;99.90
19538;DHT22;9914;51.008;4.300;2023-04-25T15:02:48;11.60;99.90
19538;DHT22;9914;51.008;4.300;2023-04-25T15:05:14;11.60;99.90
19538;DHT22;9914;51.008;4.300;2023-04-25T15:07:40;11.30;99.90
19538;DHT22;9914;51.008;4.300;2023-04-25T15:10:07;11.70;99.90
19538;DHT22;9914;51.008;4.300;2023-04-25T15:12:39;12.10;99.90
19538;DHT22;9914;51.008;4.300;2023-04-25T15:15:06;12.20;99.90
19538;DHT22;9914;51.008;4.300;2023-04-25T15:17:37;13.30;99.90
19538;DHT22;9914;51.008;4.300;2023-04-25T15:20:05;13.50;99.90
19538;DHT22;9914;51.008;4.300;2023-04-25T15:22:31;14.50;99.90
19538;DHT22;9914;51.008;4.300;2023-04-25T15:24:56;14.80;99.90
19538;DHT22;9914;51.008;4.300;2023-04-25T15:27:22;15.00;99.90
19538;DHT22;9914;51.008;4.300;2023-04-25T15:29:48;15.50;99.90
19538;DHT22;9914;51.008;4.300;2023-04-25T15:32:14;15.90;99.90
19538;DHT22;9914;51.008;4.300;2023-04-25T15:34:40;15.20;99.90
19538;DHT22;9914;51.008;4.300;2023-04-25T15:37:06;14.00;99.90
19538;DHT22;9914;51.008;4.300;2023-04-25T15:39:31;13.60;99.90
19538;DHT22;9914;51.008;4.300;2023-04-25T15:41:57;14.40;99.90
19538;DHT22;9914;51.008;4.300;2023-04-25T15:44:24;15.40;99.90
19538;DHT22;9914;51.008;4.300;2023-04-25T15:46:49;15.80;99.90
19538;DHT22;9914;51.008;4.300;2023-04-25T15:49:15;13.70;99.90
19538;DHT22;9914;51.008;4.300;2023-04-25T15:51:41;13.50;99.90
19538;DHT22;9914;51.008;4.300;2023-04-25T15:54:06;13.40;99.90
19538;DHT22;9914;51.008;4.300;2023-04-25T15:56:32;12.20;99.90
19538;DHT22;9914;51.008;4.300;2023-04-25T15:58:58;11.80;99.90
19538;DHT22;9914;51.008;4.300;2023-04-25T16:01:24;11.40;99.90